Time;durP1;ratioP1;P1;durP2;ratioP2;P2;SDS_P1;SDS_P2;PMS_P1;PMS_P2;Temp;Humidity;BMP_temperature;BMP_pressure;BME280_temperature;BME280_humidity;BME280_pressure;Samples;Min_cycle;Max_cycle;Signal;HPM_P1;HPM_P2
2022/07/25 00:02:17;;;;;;;7.30;2.15;;;21.50;99.90;;;;;;5041879;28;20111;-81
2022/07/25 00:04:43;;;;;;;2.47;1.83;;;21.50;99.90;;;;;;5043195;28;20398;-81
2022/07/25 00:07:08;;;;;;;2.03;1.83;;;21.40;99.90;;;;;;5043733;28;20621;-81
2022/07/25 00:09:34;;;;;;;4.07;2.08;;;21.40;99.90;;;;;;5041679;28;20121;-81
2022/07/25 00:12:03;;;;;;;3.03;1.90;;;21.40;99.90;;;;;;5044727;28;20404;-81
2022/07/25 00:14:28;;;;;;;3.97;2.30;;;21.40;99.90;;;;;;5041699;28;20040;-81
2022/07/25 00:16:54;;;;;;;3.17;1.92;;;21.40;99.90;;;;;;5043112;28;20767;-81
2022/07/25 00:19:19;;;;;;;5.13;2.13;;;21.40;99.90;;;;;;5044067;28;20139;-81
2022/07/25 00:21:45;;;;;;;4.55;2.47;;;21.40;99.90;;;;;;5041819;28;20029;-81
2022/07/25 00:24:13;;;;;;;2.50;2.20;;;21.40;99.90;;;;;;5028245;28;20183;-81
2022/07/25 00:26:38;;;;;;;6.95;2.50;;;21.40;99.90;;;;;;5044052;28;20033;-81
2022/07/25 00:29:07;;;;;;;4.15;3.10;;;21.40;99.90;;;;;;5045173;28;20554;-81
2022/07/25 00:31:32;;;;;;;3.58;2.78;;;21.40;99.90;;;;;;5033392;28;20044;-81
2022/07/25 00:33:58;;;;;;;3.85;2.95;;;21.40;99.90;;;;;;5030278;28;20060;-82
2022/07/25 00:36:23;;;;;;;5.80;2.97;;;21.40;99.90;;;;;;5050189;28;20446;-82
2022/07/25 00:38:52;;;;;;;3.17;2.88;;;21.40;99.90;;;;;;5034972;28;20709;-82
2022/07/25 00:41:18;;;;;;;3.50;3.20;;;21.40;99.90;;;;;;5053387;28;20048;-82
2022/07/25 00:43:45;;;;;;;3.85;3.38;;;21.40;99.90;;;;;;5053631;28;20040;-82
2022/07/25 00:46:15;;;;;;;3.22;2.92;;;21.40;99.90;;;;;;5052546;28;20045;-82
2022/07/25 00:48:40;;;;;;;4.15;3.38;;;21.40;99.90;;;;;;5053338;28;20045;-82
2022/07/25 00:51:07;;;;;;;5.57;2.90;;;21.40;99.90;;;;;;5050305;28;20572;-82
2022/07/25 00:53:37;;;;;;;7.40;3.25;;;21.30;99.90;;;;;;5051420;28;20048;-82
2022/07/25 00:56:04;;;;;;;3.53;3.20;;;21.30;99.90;;;;;;5050584;28;20049;-82
2022/07/25 00:58:30;;;;;;;3.78;3.42;;;21.20;99.90;;;;;;5036267;28;20495;-82
2022/07/25 01:00:55;;;;;;;4.00;3.70;;;21.20;99.90;;;;;;5051644;28;20091;-82
2022/07/25 01:03:21;;;;;;;5.13;4.28;;;21.10;99.90;;;;;;5056475;28;20037;-83
2022/07/25 01:05:49;;;;;;;5.80;4.32;;;21.10;99.90;;;;;;5052758;28;20041;-82
2022/07/25 01:08:17;;;;;;;5.15;4.65;;;21.10;99.90;;;;;;5053462;28;20055;-82
2022/07/25 01:10:45;;;;;;;5.20;3.65;;;21.10;99.90;;;;;;5052795;28;20123;-83
2022/07/25 01:13:10;;;;;;;5.75;4.30;;;21.00;99.90;;;;;;5034945;28;20115;-82
2022/07/25 01:15:36;;;;;;;6.68;4.55;;;21.10;99.90;;;;;;5060888;28;20124;-82
2022/07/25 01:18:02;;;;;;;6.20;5.05;;;21.00;99.90;;;;;;5047699;28;20088;-82
2022/07/25 01:20:29;;;;;;;6.22;4.93;;;20.90;99.90;;;;;;5046607;28;20080;-81
2022/07/25 01:22:56;;;;;;;7.45;5.20;;;20.90;99.90;;;;;;5034549;28;20058;-82
2022/07/25 01:25:22;;;;;;;6.90;5.63;;;20.90;99.90;;;;;;5050834;28;20033;-82
2022/07/25 01:27:49;;;;;;;6.28;5.68;;;20.80;99.90;;;;;;5052182;28;20059;-82
2022/07/25 01:30:15;;;;;;;8.13;5.68;;;20.80;99.90;;;;;;5048918;28;20084;-82
2022/07/25 01:32:42;;;;;;;7.00;5.93;;;20.80;99.90;;;;;;5034156;28;20049;-82
2022/07/25 01:35:09;;;;;;;6.65;5.40;;;20.80;99.90;;;;;;5049850;28;20083;-83
2022/07/25 01:37:37;;;;;;;9.20;5.82;;;20.70;99.90;;;;;;5048846;28;20491;-82
2022/07/25 01:40:04;;;;;;;6.60;6.00;;;20.60;99.90;;;;;;5051037;28;20041;-82
2022/07/25 01:42:30;;;;;;;7.18;6.03;;;20.70;99.90;;;;;;5050670;28;20419;-82
2022/07/25 01:44:56;;;;;;;6.35;5.57;;;20.60;99.90;;;;;;5049227;28;20040;-82
2022/07/25 01:47:21;;;;;;;6.18;5.20;;;20.60;99.90;;;;;;5030317;28;20037;-82
2022/07/25 01:49:47;;;;;;;7.45;6.75;;;20.40;99.90;;;;;;5049359;28;20563;-82
2022/07/25 01:52:13;;;;;;;7.55;6.85;;;20.60;99.90;;;;;;5053220;28;20454;-81
2022/07/25 01:54:39;;;;;;;8.25;6.55;;;20.50;99.90;;;;;;5052349;28;20073;-82
2022/07/25 01:57:06;;;;;;;6.43;5.82;;;20.60;99.90;;;;;;5048722;28;20656;-82
2022/07/25 01:59:32;;;;;;;6.97;6.22;;;20.50;99.90;;;;;;5028690;28;20044;-82
2022/07/25 02:01:58;;;;;;;6.35;5.88;;;20.50;99.90;;;;;;5048076;28;20048;-81
2022/07/25 02:04:27;;;;;;;9.43;6.75;;;20.50;99.90;;;;;;5049899;28;20053;-82
2022/07/25 02:06:52;;;;;;;8.25;6.82;;;20.50;99.90;;;;;;5049761;28;20037;-82
2022/07/25 02:09:18;;;;;;;7.13;6.50;;;20.40;99.90;;;;;;5031268;28;20041;-81
2022/07/25 02:11:44;;;;;;;8.38;6.70;;;20.30;99.90;;;;;;5047816;28;20041;-82
2022/07/25 02:14:19;;;;;;;11.65;6.80;;;20.30;99.90;;;;;;5033524;28;20044;-83
2022/07/25 02:16:48;;;;;;;7.47;6.88;;;20.20;99.90;;;;;;5068415;28;20068;-82
2022/07/25 02:19:13;;;;;;;8.25;7.45;;;20.20;99.90;;;;;;5051325;28;20090;-82
2022/07/25 02:21:39;;;;;;;9.27;7.70;;;20.20;99.90;;;;;;5050479;28;20037;-83
2022/07/25 02:24:06;;;;;;;8.98;7.63;;;20.20;99.90;;;;;;5052427;28;20442;-82
2022/07/25 02:26:31;;;;;;;9.23;8.30;;;20.20;99.90;;;;;;5051035;28;20044;-82
2022/07/25 02:28:57;;;;;;;9.02;7.75;;;20.10;99.90;;;;;;5046754;28;20048;-83
2022/07/25 02:31:22;;;;;;;11.10;7.93;;;20.10;99.90;;;;;;5047526;28;20045;-82
2022/07/25 02:33:48;;;;;;;8.77;7.88;;;20.10;99.90;;;;;;5049274;28;20040;-82
2022/07/25 02:36:13;;;;;;;9.43;8.45;;;20.00;99.90;;;;;;5051870;28;20040;-81
2022/07/25 02:38:39;;;;;;;10.18;8.55;;;20.10;99.90;;;;;;5048887;28;20044;-83
2022/07/25 02:41:05;;;;;;;9.68;7.38;;;20.00;99.90;;;;;;5049104;28;20048;-83
2022/07/25 02:43:30;;;;;;;9.80;7.70;;;20.10;99.90;;;;;;5048225;28;20041;-83
2022/07/25 02:45:58;;;;;;;10.60;7.70;;;20.00;99.90;;;;;;5049447;28;20037;-83
2022/07/25 02:48:24;;;;;;;10.15;8.25;;;20.00;99.90;;;;;;5049005;28;20033;-81
2022/07/25 02:50:49;;;;;;;9.35;8.45;;;20.10;99.90;;;;;;5051542;28;20033;-82
2022/07/25 02:53:15;;;;;;;8.20;7.57;;;20.10;99.90;;;;;;5048517;28;20079;-82
2022/07/25 02:55:40;;;;;;;9.18;8.25;;;20.20;99.90;;;;;;5053240;28;20060;-81
2022/07/25 02:58:06;;;;;;;9.00;8.10;;;20.20;99.90;;;;;;5048787;28;20082;-82
2022/07/25 03:00:31;;;;;;;9.05;7.93;;;20.20;99.90;;;;;;5050029;28;20052;-83
2022/07/25 03:02:57;;;;;;;10.15;7.93;;;20.20;99.90;;;;;;5048004;28;20045;-82
2022/07/25 03:05:23;;;;;;;7.97;7.18;;;20.20;99.90;;;;;;5047505;28;20056;-81
2022/07/25 03:07:48;;;;;;;8.80;7.90;;;20.20;99.90;;;;;;5046704;28;20041;-81
2022/07/25 03:10:14;;;;;;;10.35;8.15;;;20.20;99.90;;;;;;5045975;28;20761;-82
2022/07/25 03:12:41;;;;;;;8.40;7.70;;;20.10;99.90;;;;;;5044332;28;20116;-81
2022/07/25 03:15:08;;;;;;;10.00;8.77;;;20.20;99.90;;;;;;5046019;28;21808;-82
2022/07/25 03:17:37;;;;;;;10.15;8.32;;;20.10;99.90;;;;;;5027369;28;20091;-82
2022/07/25 03:20:04;;;;;;;9.25;8.45;;;20.10;99.90;;;;;;5031296;28;20109;-82
2022/07/25 03:22:30;;;;;;;11.15;10.15;;;20.00;99.90;;;;;;5051139;28;20041;-82
2022/07/25 03:24:55;;;;;;;12.50;8.75;;;20.00;99.90;;;;;;5051734;28;20048;-81
2022/07/25 03:27:21;;;;;;;11.98;8.95;;;20.00;99.90;;;;;;5044895;28;20055;-81
2022/07/25 03:29:46;;;;;;;10.00;9.00;;;20.00;99.90;;;;;;5046271;28;20190;-81
2022/07/25 03:32:12;;;;;;;9.27;8.38;;;19.90;99.90;;;;;;5044774;28;20040;-82
2022/07/25 03:34:38;;;;;;;13.55;9.90;;;19.90;99.90;;;;;;5049042;28;20036;-82
2022/07/25 03:37:04;;;;;;;10.73;9.73;;;19.90;99.90;;;;;;5046756;28;20058;-81
2022/07/25 03:39:30;;;;;;;11.07;9.27;;;19.80;99.90;;;;;;5048663;28;20044;-82
2022/07/25 03:41:56;;;;;;;11.32;10.07;;;19.80;99.90;;;;;;5046620;28;20041;-81
2022/07/25 03:44:23;;;;;;;11.23;9.52;;;19.80;99.90;;;;;;5048888;28;20070;-82
2022/07/25 03:46:50;;;;;;;10.05;9.02;;;19.80;99.90;;;;;;5047951;28;20114;-81
2022/07/25 03:49:16;;;;;;;10.65;9.65;;;19.70;99.90;;;;;;5048274;28;20080;-81
2022/07/25 03:51:42;;;;;;;12.23;10.45;;;19.70;99.90;;;;;;5047070;28;20049;-82
2022/07/25 03:54:12;;;;;;;16.90;10.70;;;19.80;99.90;;;;;;5047679;28;20049;-82
2022/07/25 03:56:49;;;;;;;11.98;10.75;;;19.70;99.90;;;;;;5046364;28;20095;-81
2022/07/25 03:59:18;;;;;;;12.82;10.73;;;19.70;99.90;;;;;;5050457;28;20049;-82
2022/07/25 04:02:01;;;;;;;13.45;10.57;;;19.70;99.90;;;;;;5047766;28;20032;-81
2022/07/25 04:04:27;;;;;;;12.13;10.95;;;19.70;99.90;;;;;;5051287;28;20037;-82
2022/07/25 04:06:52;;;;;;;12.77;11.57;;;19.70;99.90;;;;;;5050857;28;20060;-81
2022/07/25 04:09:18;;;;;;;11.25;10.25;;;19.70;99.90;;;;;;5053123;28;20079;-81
2022/07/25 04:11:43;;;;;;;16.08;11.85;;;19.70;99.90;;;;;;5050744;28;20044;-82
2022/07/25 04:14:09;;;;;;;11.10;10.00;;;19.70;99.90;;;;;;5050701;28;20041;-81
2022/07/25 04:16:35;;;;;;;13.25;9.88;;;19.70;99.90;;;;;;5049861;28;20673;-81
2022/07/25 04:19:00;;;;;;;12.32;11.05;;;19.80;99.90;;;;;;5053367;28;20041;-82
2022/07/25 04:21:26;;;;;;;11.35;10.25;;;19.90;99.90;;;;;;5054333;28;20041;-82
2022/07/25 04:23:52;;;;;;;11.77;10.68;;;19.90;99.90;;;;;;5054732;28;20040;-81
2022/07/25 04:26:18;;;;;;;13.30;11.57;;;20.10;99.90;;;;;;5052843;28;20041;-81
2022/07/25 04:28:43;;;;;;;11.55;10.40;;;20.30;99.90;;;;;;5036066;28;20052;-82
2022/07/25 04:31:11;;;;;;;11.60;10.43;;;20.70;99.90;;;;;;5031652;28;20127;-82
2022/07/25 04:33:38;;;;;;;11.85;10.68;;;21.00;99.90;;;;;;5052254;28;20041;-82
2022/07/25 04:36:04;;;;;;;11.68;10.48;;;21.70;99.90;;;;;;5049591;28;20076;-82
2022/07/25 04:38:29;;;;;;;10.23;9.00;;;22.50;99.90;;;;;;5067816;28;20376;-82
2022/07/25 04:40:55;;;;;;;11.55;10.50;;;23.20;99.90;;;;;;5047412;28;20095;-82
2022/07/25 04:43:21;;;;;;;10.68;9.60;;;23.80;99.90;;;;;;5045082;28;20115;-82
2022/07/25 04:45:46;;;;;;;11.85;10.75;;;23.80;99.90;;;;;;5045652;28;20163;-83
2022/07/25 04:48:12;;;;;;;11.70;10.70;;;23.60;99.90;;;;;;5055592;28;20075;-82
2022/07/25 04:50:55;;;;;;;12.80;9.90;;;23.30;99.90;;;;;;5051329;28;20064;-83
2022/07/25 04:53:23;;;;;;;13.73;10.52;;;23.00;99.90;;;;;;5054957;28;20117;-82
2022/07/25 04:56:21;;;;;;;11.50;10.20;;;22.70;99.90;;;;;;5063822;22;20578;-82
2022/07/25 04:59:25;;;;;;;12.15;11.00;;;22.50;99.90;;;;;;5011054;28;20159;-82
2022/07/25 05:02:07;;;;;;;;;;;;;;;;;;;;;
2022/07/25 05:04:48;;;;;;;15.57;11.38;;;22.10;99.90;;;;;;5047863;28;20380;-83
2022/07/25 05:07:26;;;;;;;12.15;11.15;;;22.00;99.90;;;;;;5039087;28;20033;-82
2022/07/25 05:09:58;;;;;;;17.20;11.77;;;22.00;99.90;;;;;;5029746;28;20587;-81
2022/07/25 05:12:50;;;;;;;16.08;11.45;;;22.00;99.90;;;;;;5023308;28;20088;-82
2022/07/25 05:15:49;;;;;;;15.48;13.10;;;21.80;99.90;;;;;;5015878;28;20048;-83
2022/07/25 05:19:19;;;;;;;16.27;12.68;;;22.10;99.90;;;;;;4986457;28;20051;-83
2022/07/25 05:22:43;;;;;;;16.30;11.50;;;22.10;99.90;;;;;;4991574;28;20042;-84
2022/07/25 05:28:38;;;;;;;12.95;11.65;;;22.10;99.90;;;;;;5024295;28;20045;-83
2022/07/25 05:31:09;;;;;;;20.13;12.52;;;22.00;99.90;;;;;;5033508;28;20497;-82
2022/07/25 05:33:44;;;;;;;14.75;11.32;;;21.90;99.90;;;;;;5022940;28;20033;-83
2022/07/25 05:36:15;;;;;;;16.00;10.88;;;22.10;99.90;;;;;;5040165;28;20411;-83
2022/07/25 05:39:43;;;;;;;12.85;10.77;;;22.00;99.90;;;;;;5023029;28;20107;-84
2022/07/25 05:42:43;;;;;;;13.25;11.43;;;22.10;99.90;;;;;;4963821;28;20062;-83
2022/07/25 06:07:26;;;;;;;12.07;9.07;;;23.00;99.90;;;;;;4874133;29;20054;-81
2022/07/25 06:10:04;;;;;;;11.52;8.95;;;23.70;99.90;;;;;;4905028;28;20933;-81
2022/07/25 06:12:48;;;;;;;;;;;;;;;;;;;;;
2022/07/25 06:15:17;;;;;;;9.52;8.57;;;23.60;99.90;;;;;;5010310;28;20072;-81
2022/07/25 06:17:46;;;;;;;9.55;8.23;;;24.20;99.90;;;;;;5012910;28;20118;-80
2022/07/25 06:20:15;;;;;;;9.68;8.10;;;24.20;99.90;;;;;;4990757;28;20048;-81
2022/07/25 06:22:40;;;;;;;9.13;8.15;;;24.40;99.90;;;;;;5006412;28;20644;-81
2022/07/25 06:25:07;;;;;;;13.18;8.70;;;24.40;99.90;;;;;;5008488;28;20063;-81
2022/07/25 06:27:32;;;;;;;9.65;8.57;;;24.40;99.90;;;;;;4992098;28;20061;-81
2022/07/25 06:29:58;;;;;;;15.57;8.45;;;24.40;99.90;;;;;;5008525;28;20148;-82
2022/07/25 06:32:24;;;;;;;12.90;8.15;;;24.40;99.90;;;;;;5008311;28;20065;-80
2022/07/25 06:34:50;;;;;;;16.45;9.02;;;24.60;99.90;;;;;;5011036;28;20116;-82
2022/07/25 06:38:29;;;;;;;11.93;8.95;;;25.00;99.90;;;;;;5013174;28;20041;-83
2022/07/25 06:41:36;;;;;;;14.60;7.78;;;25.30;99.90;;;;;;5001725;28;20053;-82
2022/07/25 06:44:09;;;;;;;13.75;8.93;;;25.40;99.90;;;;;;4992516;28;21185;-82
2022/07/25 06:46:40;;;;;;;14.85;8.82;;;25.60;99.90;;;;;;5010379;28;20045;-82
2022/07/25 06:49:28;;;;;;;17.75;8.07;;;25.70;99.90;;;;;;4999362;28;20555;-82
2022/07/25 06:51:55;;;;;;;13.02;9.05;;;26.00;99.90;;;;;;5036555;28;20045;-81
2022/07/25 06:58:59;;;;;;;10.30;8.38;;;26.80;99.90;;;;;;5001003;28;20064;-84
2022/07/25 07:09:09;;;;;;;17.02;9.10;;;27.70;99.90;;;;;;4957819;28;20041;-82
2022/07/25 07:16:47;;;;;;;;;;;;;;;;;;;;;
2022/07/25 07:24:05;;;;;;;15.07;9.32;;;27.00;99.90;;;;;;4842881;29;20058;-83
2022/07/25 07:27:05;;;;;;;13.13;9.05;;;26.70;99.90;;;;;;4810237;29;20134;-82
2022/07/25 07:31:04;;;;;;;10.52;9.35;;;26.60;99.90;;;;;;4833779;29;20053;-83
2022/07/25 07:37:16;;;;;;;14.52;10.02;;;26.20;99.90;;;;;;4842708;29;20064;-81
2022/07/25 07:40:21;;;;;;;11.95;9.07;;;26.00;99.90;;;;;;4841804;29;20173;-82
2022/07/25 07:43:12;;;;;;;10.63;9.48;;;25.90;99.90;;;;;;4907225;28;20093;-81
2022/07/25 07:46:01;;;;;;;13.43;9.40;;;25.80;99.90;;;;;;4959547;28;20764;-83
2022/07/25 07:48:56;;;;;;;11.38;9.40;;;25.70;99.90;;;;;;4955588;28;20030;-82
2022/07/25 07:51:50;;;;;;;10.85;9.85;;;25.80;99.90;;;;;;4976520;28;20057;-83
2022/07/25 07:58:06;;;;;;;10.88;9.75;;;26.10;99.90;;;;;;5013549;28;20079;-81
2022/07/25 08:00:38;;;;;;;12.95;10.45;;;26.10;99.90;;;;;;4995901;28;20032;-81
2022/07/25 08:03:20;;;;;;;11.27;9.05;;;26.10;99.90;;;;;;5013122;28;20484;-81
2022/07/25 08:05:47;;;;;;;8.85;7.93;;;26.10;99.90;;;;;;5011803;28;20053;-81
2022/07/25 08:08:14;;;;;;;8.27;7.57;;;25.90;99.90;;;;;;4994194;28;20041;-82
2022/07/25 08:10:43;;;;;;;9.07;7.63;;;25.90;99.90;;;;;;4997336;28;20214;-81
2022/07/25 08:13:23;;;;;;;9.35;7.57;;;25.80;99.90;;;;;;5015481;28;20156;-83
2022/07/25 08:15:52;;;;;;;8.85;7.97;;;25.70;99.90;;;;;;5011915;28;20048;-82
2022/07/25 08:18:18;;;;;;;9.27;7.63;;;25.60;99.90;;;;;;5012730;28;20068;-81
2022/07/25 08:20:45;;;;;;;9.40;7.07;;;25.50;99.90;;;;;;4993938;28;20703;-82
2022/07/25 08:23:14;;;;;;;17.20;8.63;;;25.40;99.90;;;;;;4995127;28;20445;-83
2022/07/25 08:25:43;;;;;;;7.32;6.63;;;25.50;99.90;;;;;;4996453;28;20037;-81
2022/07/25 08:28:09;;;;;;;8.35;6.97;;;25.70;99.90;;;;;;5013460;28;20046;-81
2022/07/25 08:30:39;;;;;;;13.20;7.22;;;26.00;99.90;;;;;;5014148;28;20044;-80
2022/07/25 08:33:24;;;;;;;10.50;6.63;;;26.20;99.90;;;;;;5014693;28;20041;-81
2022/07/25 08:36:13;;;;;;;7.68;6.43;;;26.20;99.90;;;;;;5011273;28;20079;-82
2022/07/25 08:39:00;;;;;;;14.95;6.28;;;26.20;99.90;;;;;;5011842;28;20123;-81
2022/07/25 08:41:38;;;;;;;7.20;6.30;;;26.30;99.90;;;;;;5013789;28;20052;-82
2022/07/25 08:44:29;;;;;;;9.63;6.13;;;26.20;99.90;;;;;;4990033;28;20049;-81
2022/07/25 08:47:21;;;;;;;6.15;5.53;;;26.00;99.90;;;;;;5013188;23;20057;-81
2022/07/25 08:50:30;;;;;;;11.15;6.38;;;25.90;99.90;;;;;;5001261;28;20127;-80
2022/07/25 08:54:00;;;;;;;10.00;5.78;;;25.70;99.90;;;;;;4954646;28;20532;-82
2022/07/25 08:56:43;;;;;;;13.57;5.78;;;25.60;99.90;;;;;;4959533;28;20101;-84
2022/07/25 08:59:36;;;;;;;7.07;5.43;;;25.40;99.90;;;;;;5041479;28;20142;-83
2022/07/25 09:06:49;;;;;;;8.05;3.63;;;25.20;99.90;;;;;;5060576;28;20090;-83
2022/07/25 09:10:13;;;;;;;6.40;2.95;;;25.70;99.90;;;;;;4980265;28;20050;-83
2022/07/25 09:13:39;;;;;;;1.65;0.98;;;25.30;99.90;;;;;;4943904;28;20583;-82
2022/07/25 09:16:06;;;;;;;3.83;1.20;;;25.30;99.90;;;;;;4984572;28;20056;-83
2022/07/25 09:18:47;;;;;;;3.40;1.42;;;25.20;99.90;;;;;;4983875;28;20570;-82
2022/07/25 09:21:14;;;;;;;1.48;1.10;;;25.20;99.90;;;;;;4962483;28;20049;-81
2022/07/25 09:23:40;;;;;;;1.45;0.90;;;25.20;99.90;;;;;;4977421;28;20500;-81
2022/07/25 09:26:07;;;;;;;5.47;1.10;;;25.30;99.90;;;;;;5032466;28;20052;-81
2022/07/25 09:28:46;;;;;;;3.60;1.20;;;25.10;99.90;;;;;;5040839;28;20451;-83
2022/07/25 09:31:13;;;;;;;6.35;1.60;;;25.50;99.90;;;;;;5057716;28;20032;-85
2022/07/25 09:33:57;;;;;;;4.00;1.30;;;25.50;99.90;;;;;;5060454;28;20068;-84
2022/07/25 09:36:26;;;;;;;1.98;1.00;;;25.50;99.90;;;;;;5054236;28;20045;-80
2022/07/25 09:38:56;;;;;;;2.42;1.20;;;25.80;99.90;;;;;;5037786;28;20037;-80
2022/07/25 09:41:31;;;;;;;4.38;1.33;;;26.10;99.90;;;;;;5039937;28;20049;-83
2022/07/25 09:43:57;;;;;;;4.53;1.48;;;26.60;99.90;;;;;;5051880;28;20040;-82
2022/07/25 09:46:30;;;;;;;2.65;1.40;;;26.90;99.90;;;;;;5035565;28;20041;-84
2022/07/25 09:48:59;;;;;;;3.17;1.10;;;27.10;99.90;;;;;;5035921;28;20048;-82
2022/07/25 09:51:25;;;;;;;2.63;1.30;;;27.10;99.90;;;;;;5036057;28;20037;-81
2022/07/25 09:53:52;;;;;;;3.03;1.00;;;27.00;99.90;;;;;;5056684;28;20628;-81
2022/07/25 09:56:18;;;;;;;7.07;1.60;;;27.00;99.90;;;;;;5054648;28;20132;-84
2022/07/25 09:58:43;;;;;;;5.85;1.63;;;26.80;99.90;;;;;;5039151;28;20056;-80
2022/07/25 10:01:16;;;;;;;3.05;1.40;;;26.70;99.90;;;;;;5041823;28;20133;-81
2022/07/25 10:04:03;;;;;;;4.20;1.20;;;26.70;99.90;;;;;;5059824;28;20052;-82
2022/07/25 10:06:56;;;;;;;1.88;1.33;;;26.70;99.90;;;;;;5056020;28;20048;-83
2022/07/25 10:09:22;;;;;;;19.65;2.60;;;26.80;99.90;;;;;;5057398;28;20063;-80
2022/07/25 10:12:04;;;;;;;4.38;1.10;;;26.80;99.90;;;;;;5033289;28;20051;-84
2022/07/25 10:14:30;;;;;;;6.22;1.30;;;27.00;99.90;;;;;;5035271;28;20068;-80
2022/07/25 10:16:56;;;;;;;9.55;1.70;;;27.20;99.90;;;;;;5016340;28;20132;-82
2022/07/25 10:23:23;;;;;;;5.82;0.50;;;27.20;99.90;;;;;;5055338;28;20039;-85
2022/07/25 10:29:34;;;;;;;6.82;0.50;;;27.00;99.90;;;;;;5041885;28;21955;-81
2022/07/25 10:32:11;;;;;;;16.50;0.73;;;27.30;99.90;;;;;;5019519;28;20116;-83
2022/07/25 10:34:38;;;;;;;2.85;0.43;;;27.40;99.90;;;;;;5044986;28;20041;-80
2022/07/25 10:37:13;;;;;;;14.52;1.15;;;27.30;99.90;;;;;;5058577;28;20237;-81
2022/07/25 10:39:39;;;;;;;;;;;27.20;99.90;;;;;;5038757;28;20052;-80
2022/07/25 10:42:06;;;;;;;6.82;0.57;;;27.00;99.90;;;;;;5034550;28;19924;-82
2022/07/25 10:44:44;;;;;;;3.03;0.70;;;26.60;99.90;;;;;;5046677;28;21030;-82
2022/07/25 10:47:24;;;;;;;18.20;1.08;;;26.40;99.90;;;;;;5030591;28;20109;-83
2022/07/25 10:51:13;;;;;;;;;;;;;;;;;;;;;
2022/07/25 10:54:33;;;;;;;3.85;0.63;;;25.80;99.90;;;;;;4931707;28;20050;-85
2022/07/25 10:56:59;;;;;;;6.65;0.98;;;25.50;99.90;;;;;;4919598;28;20055;-81
2022/07/25 10:59:34;;;;;;;5.22;1.02;;;25.30;99.90;;;;;;4988442;28;20472;-82
2022/07/25 11:02:00;;;;;;;6.20;1.33;;;25.20;99.90;;;;;;5039683;28;20068;-81
2022/07/25 11:04:28;;;;;;;6.90;1.17;;;25.10;99.90;;;;;;5052534;28;20099;-85
2022/07/25 11:06:54;;;;;;;5.10;1.40;;;25.00;99.90;;;;;;5021658;28;20040;-80
2022/07/25 11:09:33;;;;;;;6.72;1.20;;;25.30;99.90;;;;;;5034269;28;21077;-82
2022/07/25 11:12:16;;;;;;;5.53;1.23;;;25.10;99.90;;;;;;5007659;28;20051;-82
2022/07/25 11:14:44;;;;;;;6.55;1.42;;;25.20;99.90;;;;;;5016401;28;20040;-82
2022/07/25 11:17:22;;;;;;;6.95;1.58;;;25.50;99.90;;;;;;5036759;28;20784;-83
2022/07/25 11:20:05;;;;;;;4.85;1.30;;;25.60;99.90;;;;;;5035711;28;20082;-81
2022/07/25 11:22:33;;;;;;;2.97;1.13;;;25.90;99.90;;;;;;5037861;28;20036;-82
2022/07/25 11:24:59;;;;;;;5.68;1.48;;;26.00;99.90;;;;;;5034306;28;20058;-81
2022/07/25 11:27:38;;;;;;;6.45;1.80;;;26.20;99.90;;;;;;5034475;28;20074;-81
2022/07/25 11:30:18;;;;;;;4.75;1.60;;;26.10;99.90;;;;;;5052480;28;20072;-84
2022/07/25 11:32:49;;;;;;;5.05;1.65;;;25.90;99.90;;;;;;5018581;28;20483;-82
2022/07/25 11:35:20;;;;;;;8.85;1.67;;;25.90;99.90;;;;;;5036127;28;20052;-83
2022/07/25 11:37:54;;;;;;;6.80;1.55;;;25.70;99.90;;;;;;5033029;28;22028;-82
2022/07/25 11:40:23;;;;;;;4.63;1.27;;;25.70;99.90;;;;;;5018627;28;20048;-83
2022/07/25 11:43:06;;;;;;;;;;;;;;;;;;;;;
2022/07/25 11:46:24;;;;;;;6.00;1.77;;;25.70;99.90;;;;;;5054597;28;20044;-84
2022/07/25 11:49:00;;;;;;;16.00;2.42;;;25.70;99.90;;;;;;5003397;28;20063;-83
2022/07/25 11:51:45;;;;;;;3.72;1.75;;;25.80;99.90;;;;;;5023395;28;20051;-81
2022/07/25 11:54:20;;;;;;;9.68;1.33;;;25.70;99.90;;;;;;5040570;28;20061;-83
2022/07/25 11:57:07;;;;;;;5.50;1.80;;;25.60;99.90;;;;;;5032528;28;20040;-81
2022/07/25 11:59:44;;;;;;;7.63;1.55;;;25.30;99.90;;;;;;5032893;28;20036;-80
2022/07/25 12:02:29;;;;;;;9.75;2.35;;;25.30;99.90;;;;;;5037001;28;20117;-82
2022/07/25 12:05:01;;;;;;;11.68;1.50;;;25.10;99.90;;;;;;5036556;28;20106;-81
2022/07/25 12:07:38;;;;;;;7.38;1.45;;;24.90;99.90;;;;;;5031782;28;20036;-80
2022/07/25 12:10:11;;;;;;;6.75;1.60;;;25.00;99.90;;;;;;5032698;28;20040;-81
2022/07/25 12:12:54;;;;;;;8.05;1.35;;;25.00;99.90;;;;;;5036806;28;20068;-80
2022/07/25 12:15:21;;;;;;;6.70;1.33;;;25.10;99.90;;;;;;5033012;28;20045;-80
2022/07/25 12:17:48;;;;;;;8.07;0.90;;;25.00;99.90;;;;;;5033490;28;20109;-80
2022/07/25 12:20:24;;;;;;;7.13;1.05;;;25.20;99.90;;;;;;5028724;28;20041;-82
2022/07/25 12:22:52;;;;;;;17.00;1.65;;;25.50;99.90;;;;;;5050072;28;20036;-82
2022/07/25 12:25:20;;;;;;;14.20;1.45;;;25.80;99.90;;;;;;5036547;28;21079;-82
2022/07/25 12:27:46;;;;;;;11.00;1.70;;;25.80;99.90;;;;;;5035857;28;20055;-80
2022/07/25 12:30:13;;;;;;;8.43;1.60;;;25.80;99.90;;;;;;5036815;28;20133;-81
2022/07/25 12:32:40;;;;;;;20.95;1.83;;;25.80;99.90;;;;;;5040103;28;20495;-80
2022/07/25 12:35:16;;;;;;;5.78;1.05;;;25.80;99.90;;;;;;5036337;28;21944;-81
2022/07/25 12:37:42;;;;;;;8.63;1.60;;;25.70;99.90;;;;;;5035264;28;20037;-79
2022/07/25 12:40:09;;;;;;;3.22;1.15;;;25.70;99.90;;;;;;5032605;28;20040;-81
2022/07/25 12:42:35;;;;;;;3.97;0.90;;;25.70;99.90;;;;;;5035992;28;20052;-80
2022/07/25 12:45:01;;;;;;;6.72;0.95;;;25.60;99.90;;;;;;5035120;28;21438;-80
2022/07/25 12:47:27;;;;;;;8.60;1.50;;;25.70;99.90;;;;;;5051021;28;20095;-80
2022/07/25 12:49:55;;;;;;;6.00;1.30;;;25.60;99.90;;;;;;5037337;28;20063;-80
2022/07/25 12:52:21;;;;;;;5.28;0.90;;;25.60;99.90;;;;;;5034478;28;21570;-81
2022/07/25 12:54:47;;;;;;;9.07;0.90;;;25.70;99.90;;;;;;5053386;28;20095;-81
2022/07/25 12:57:14;;;;;;;4.75;1.00;;;25.70;99.90;;;;;;5054096;28;20048;-81
2022/07/25 12:59:40;;;;;;;3.70;1.08;;;25.60;99.90;;;;;;5038602;28;20048;-82
2022/07/25 13:02:06;;;;;;;4.03;0.93;;;25.50;99.90;;;;;;5032428;28;20423;-82
2022/07/25 13:04:31;;;;;;;4.38;1.00;;;25.40;99.90;;;;;;5051408;28;20114;-81
2022/07/25 13:06:57;;;;;;;6.70;1.30;;;25.30;99.90;;;;;;5036759;28;20402;-81
2022/07/25 13:09:24;;;;;;;12.65;1.15;;;25.20;99.90;;;;;;5034143;28;20060;-82
2022/07/25 13:11:50;;;;;;;7.18;1.48;;;25.10;99.90;;;;;;5049154;28;20118;-82
2022/07/25 13:14:16;;;;;;;9.27;1.40;;;24.90;99.90;;;;;;5019628;28;20438;-80
2022/07/25 13:16:43;;;;;;;3.47;1.00;;;24.80;99.90;;;;;;5053198;28;20037;-80
2022/07/25 13:19:09;;;;;;;6.78;1.10;;;24.60;99.90;;;;;;5034165;28;20048;-80
2022/07/25 13:21:36;;;;;;;5.32;1.63;;;24.50;99.90;;;;;;5019042;28;20145;-81
2022/07/25 13:24:02;;;;;;;7.70;1.52;;;24.40;99.90;;;;;;5017133;28;20395;-79
2022/07/25 13:26:27;;;;;;;9.75;1.77;;;24.10;99.90;;;;;;5038122;28;20075;-81
2022/07/25 13:28:53;;;;;;;6.38;2.08;;;24.00;99.90;;;;;;5052275;28;20181;-81
2022/07/25 13:31:20;;;;;;;8.20;1.13;;;23.80;99.90;;;;;;5038634;28;20105;-81
2022/07/25 13:33:46;;;;;;;10.00;1.40;;;23.70;99.90;;;;;;5051516;28;20553;-80
2022/07/25 13:36:12;;;;;;;17.83;3.08;;;23.50;99.90;;;;;;5035457;28;20834;-81
2022/07/25 13:38:40;;;;;;;7.45;1.30;;;23.50;99.90;;;;;;5035301;28;20043;-81
2022/07/25 13:41:06;;;;;;;5.32;1.45;;;23.40;99.90;;;;;;5047675;28;20041;-82
2022/07/25 13:43:32;;;;;;;8.93;1.88;;;23.30;99.90;;;;;;5032077;28;20093;-81
2022/07/25 13:45:58;;;;;;;10.60;2.35;;;23.20;99.90;;;;;;5036459;28;20786;-80
2022/07/25 13:48:26;;;;;;;9.77;1.95;;;23.20;99.90;;;;;;5054767;28;20039;-82
2022/07/25 13:50:52;;;;;;;6.22;1.30;;;23.70;99.90;;;;;;5050428;28;20059;-81
2022/07/25 13:53:18;;;;;;;14.00;2.13;;;23.40;99.90;;;;;;5051319;28;20036;-80
2022/07/25 13:55:43;;;;;;;10.88;1.40;;;23.60;99.90;;;;;;5035103;28;20146;-80
2022/07/25 13:58:09;;;;;;;13.15;2.00;;;23.80;99.90;;;;;;5036092;28;20198;-81
2022/07/25 14:00:35;;;;;;;8.93;1.83;;;24.10;99.90;;;;;;5034611;28;20118;-80
2022/07/25 14:03:00;;;;;;;9.23;2.33;;;24.50;99.90;;;;;;5033776;28;20127;-80
2022/07/25 14:05:26;;;;;;;10.32;2.13;;;24.80;99.90;;;;;;5053594;28;20059;-81
2022/07/25 14:07:52;;;;;;;8.65;1.73;;;25.00;99.90;;;;;;5054964;28;20449;-80
2022/07/25 14:10:17;;;;;;;12.15;2.20;;;25.00;99.90;;;;;;5034353;28;20132;-80
2022/07/25 14:12:43;;;;;;;9.55;2.13;;;24.80;99.90;;;;;;5048906;28;20045;-81
2022/07/25 14:15:09;;;;;;;13.45;2.00;;;24.60;99.90;;;;;;5051408;28;20071;-81
2022/07/25 14:17:35;;;;;;;14.75;2.03;;;24.30;99.90;;;;;;5034739;28;20060;-81
2022/07/25 14:20:02;;;;;;;7.63;2.03;;;24.10;99.90;;;;;;5054890;28;20048;-80
2022/07/25 14:22:28;;;;;;;8.77;1.77;;;24.00;99.90;;;;;;5049549;28;20044;-79
2022/07/25 14:24:54;;;;;;;10.15;2.47;;;24.00;99.90;;;;;;5033397;28;20041;-79